createdAt,value
2022-08-03T00:02:39.592Z,2.30
2022-08-03T00:06:04.060Z,2.57
2022-08-03T00:09:07.589Z,2.30
2022-08-03T00:12:11.441Z,2.20
2022-08-03T00:15:17.125Z,2.50
2022-08-03T00:18:21.567Z,2.37
2022-08-03T00:21:25.332Z,2.30
2022-08-03T00:24:29.192Z,2.30
2022-08-03T00:27:32.923Z,2.30
2022-08-03T00:30:40.865Z,2.20
2022-08-03T00:33:59.533Z,2.50
2022-08-03T00:37:07.253Z,2.33
2022-08-03T00:40:12.835Z,2.40
2022-08-03T00:43:16.773Z,2.40
2022-08-03T00:46:22.448Z,2.00
2022-08-03T00:49:26.444Z,2.40
2022-08-03T00:52:30.293Z,2.30
2022-08-03T00:55:34.365Z,2.27
2022-08-03T00:58:38.757Z,2.27
2022-08-03T01:01:44.155Z,2.30
2022-08-03T01:04:48.077Z,2.33
2022-08-03T01:08:03.182Z,2.30
2022-08-03T01:11:13.193Z,2.53
2022-08-03T01:14:22.309Z,2.30
2022-08-03T01:17:38.701Z,2.27
2022-08-03T01:20:46.655Z,2.30
2022-08-03T01:24:08.230Z,2.23
2022-08-03T01:27:18.365Z,2.60
2022-08-03T01:30:28.647Z,2.03
2022-08-03T01:33:37.553Z,2.03
2022-08-03T01:36:45.729Z,2.17
2022-08-03T01:39:53.151Z,2.43
2022-08-03T01:43:01.577Z,2.27
2022-08-03T01:46:08.949Z,2.20
2022-08-03T01:49:14.597Z,2.20
2022-08-03T01:52:20.852Z,2.20
2022-08-03T01:55:28.328Z,2.30
2022-08-03T01:58:35.336Z,2.50
2022-08-03T02:02:31.752Z,2.03
2022-08-03T02:05:11.041Z,2.13
2022-08-03T02:08:17.394Z,2.33
2022-08-03T02:11:21.408Z,2.30
2022-08-03T02:14:25.829Z,2.40
2022-08-03T02:17:39.033Z,2.37
2022-08-03T02:20:45.629Z,2.00
2022-08-03T02:23:49.594Z,2.20
2022-08-03T02:26:56.954Z,2.00
2022-08-03T02:30:10.515Z,2.20
2022-08-03T02:33:21.058Z,2.30
2022-08-03T02:36:28.005Z,2.20
2022-08-03T02:39:37.566Z,2.20
2022-08-03T02:42:43.535Z,2.20
2022-08-03T02:45:50.432Z,2.47
2022-08-03T02:48:58.518Z,2.33
2022-08-03T02:52:05.881Z,2.33
2022-08-03T02:55:17.567Z,2.30
2022-08-03T02:58:22.360Z,2.20
2022-08-03T03:01:28.727Z,2.13
2022-08-03T03:04:35.064Z,2.10
2022-08-03T03:07:51.707Z,2.20
2022-08-03T03:10:57.665Z,2.17
2022-08-03T03:14:02.163Z,2.20
2022-08-03T03:17:07.711Z,2.13
2022-08-03T03:20:13.977Z,2.10
2022-08-03T03:23:19.676Z,2.27
2022-08-03T03:26:24.034Z,2.43
2022-08-03T03:29:28.252Z,2.33
2022-08-03T03:32:32.534Z,2.20
2022-08-03T03:35:38.839Z,2.27
2022-08-03T03:38:43.324Z,2.27
2022-08-03T03:41:47.448Z,2.30
2022-08-03T03:44:51.700Z,2.27
2022-08-03T03:47:55.955Z,2.30
2022-08-03T03:51:02.336Z,2.30
2022-08-03T03:54:07.405Z,2.10
2022-08-03T03:57:13.089Z,2.30
2022-08-03T04:00:19.592Z,2.37
2022-08-03T04:03:23.683Z,2.37
2022-08-03T04:06:46.845Z,2.37
2022-08-03T04:10:14.880Z,2.27
2022-08-03T04:13:22.166Z,2.70
2022-08-03T04:16:30.299Z,2.50
2022-08-03T04:19:39.737Z,2.27
2022-08-03T04:22:45.880Z,2.40
2022-08-03T04:25:52.779Z,2.03
2022-08-03T04:28:56.694Z,2.50
2022-08-03T04:32:03.168Z,2.60
2022-08-03T04:35:08.722Z,2.60
2022-08-03T04:38:16.819Z,2.57
2022-08-03T04:41:22.279Z,2.53
2022-08-03T04:44:28.921Z,2.40
2022-08-03T04:47:34.897Z,2.40
2022-08-03T04:50:39.053Z,2.23
2022-08-03T04:53:44.989Z,2.40
2022-08-03T04:56:48.744Z,2.27
2022-08-03T05:00:02.020Z,2.30
2022-08-03T05:03:23.574Z,2.37
2022-08-03T05:06:28.794Z,2.30
2022-08-03T05:09:50.117Z,2.60
2022-08-03T05:12:56.672Z,2.60
2022-08-03T05:16:00.465Z,2.40
2022-08-03T05:19:04.522Z,2.50
2022-08-03T05:22:08.315Z,2.70
2022-08-03T05:25:17.014Z,2.43
2022-08-03T05:28:22.962Z,2.57
2022-08-03T05:31:26.872Z,2.40
2022-08-03T05:34:30.657Z,2.37
2022-08-03T05:37:34.417Z,2.30
2022-08-03T05:40:41.044Z,2.57
2022-08-03T05:44:01.574Z,2.50
2022-08-03T05:47:05.381Z,2.70
2022-08-03T05:50:10.295Z,2.40
2022-08-03T05:53:14.078Z,2.43
2022-08-03T05:56:24.651Z,2.30
2022-08-03T05:59:38.220Z,2.67
2022-08-03T06:02:42.865Z,2.50
2022-08-03T06:06:00.093Z,2.50
2022-08-03T06:09:04.501Z,2.30
2022-08-03T06:12:13.932Z,2.57
2022-08-03T06:15:18.794Z,2.40
2022-08-03T06:18:24.053Z,2.60
2022-08-03T06:21:27.922Z,2.40
2022-08-03T06:24:31.840Z,2.47
2022-08-03T06:27:40.078Z,2.43
2022-08-03T06:30:43.765Z,2.80
2022-08-03T06:34:30.851Z,2.60
2022-08-03T06:37:12.061Z,2.50
2022-08-03T06:40:24.315Z,2.60
2022-08-03T06:43:29.889Z,2.63
2022-08-03T06:46:39.824Z,2.70
2022-08-03T06:49:43.707Z,2.77
2022-08-03T06:53:07.576Z,2.80
2022-08-03T06:56:11.391Z,2.57
2022-08-03T07:00:06.208Z,2.70
2022-08-03T07:02:40.869Z,2.90
2022-08-03T07:05:46.697Z,2.73
2022-08-03T07:08:52.941Z,2.60
2022-08-03T07:11:58.839Z,2.70
2022-08-03T07:15:05.798Z,2.40
2022-08-03T07:18:09.531Z,2.70
2022-08-03T07:21:13.320Z,2.70
2022-08-03T07:24:17.044Z,2.90
2022-08-03T07:27:20.789Z,2.70
2022-08-03T07:30:25.948Z,2.40
2022-08-03T07:33:29.734Z,2.80
2022-08-03T07:36:33.489Z,2.60
2022-08-03T07:39:38.216Z,2.40
2022-08-03T07:42:42.029Z,2.70
2022-08-03T07:45:47.108Z,2.60
2022-08-03T07:48:50.833Z,2.80
2022-08-03T07:52:08.427Z,2.53
2022-08-03T07:55:12.278Z,2.53
2022-08-03T07:58:21.983Z,2.90
2022-08-03T08:01:29.096Z,2.50
2022-08-03T08:04:32.861Z,2.70
2022-08-03T08:07:36.601Z,2.50
2022-08-03T08:10:40.422Z,2.60
2022-08-03T08:13:44.205Z,2.53
2022-08-03T08:16:49.722Z,2.60
2022-08-03T08:19:53.594Z,3.10
2022-08-03T08:23:00.270Z,2.90
2022-08-03T08:26:05.425Z,2.60
2022-08-03T08:29:09.250Z,2.50
2022-08-03T08:32:16.443Z,2.90
2022-08-03T08:35:20.789Z,2.50
2022-08-03T08:38:24.777Z,2.60
2022-08-03T08:41:32.134Z,2.63
2022-08-03T08:44:36.137Z,2.43
2022-08-03T08:47:50.862Z,2.67
2022-08-03T08:50:56.816Z,2.33
2022-08-03T08:54:04.253Z,2.60
2022-08-03T08:57:26.590Z,2.57
2022-08-03T09:00:32.694Z,2.57
2022-08-03T09:03:37.909Z,2.70
2022-08-03T09:06:50.212Z,2.30
2022-08-03T09:10:10.373Z,2.40
2022-08-03T09:13:17.140Z,2.47
2022-08-03T09:16:22.320Z,2.50
2022-08-03T09:19:27.542Z,2.60
2022-08-03T09:22:33.431Z,2.60
2022-08-03T09:25:39.579Z,2.50
2022-08-03T09:29:00.140Z,2.60
2022-08-03T09:32:06.614Z,2.60
2022-08-03T09:35:12.490Z,2.60
2022-08-03T09:38:17.589Z,2.73
2022-08-03T09:41:21.396Z,2.70
2022-08-03T09:44:35.565Z,2.53
2022-08-03T09:47:44.619Z,2.27
2022-08-03T09:50:58.775Z,2.40
2022-08-03T09:54:27.786Z,2.67
2022-08-03T09:57:31.992Z,2.60
2022-08-03T10:00:55.120Z,2.40
2022-08-03T10:04:03.570Z,2.70
2022-08-03T10:07:11.476Z,2.57
2022-08-03T10:10:29.105Z,2.70
2022-08-03T10:13:37.386Z,2.53
2022-08-03T10:16:41.673Z,2.50
2022-08-03T10:19:45.494Z,2.40
2022-08-03T10:22:50.788Z,2.20
2022-08-03T10:25:59.136Z,2.30
2022-08-03T10:29:12.381Z,2.50
2022-08-03T10:32:22.705Z,2.30
2022-08-03T10:35:27.281Z,2.50
2022-08-03T10:38:38.675Z,2.40
2022-08-03T10:41:46.382Z,2.50
2022-08-03T10:44:57.097Z,2.40
2022-08-03T10:48:01.823Z,2.40
2022-08-03T10:51:07.565Z,2.30
2022-08-03T10:55:03.218Z,2.50
2022-08-03T10:58:11.031Z,2.40
2022-08-03T11:01:15.177Z,2.67
2022-08-03T11:04:20.620Z,2.70
2022-08-03T11:07:26.939Z,2.60
2022-08-03T11:10:33.298Z,2.60
2022-08-03T11:13:37.127Z,2.40
2022-08-03T11:16:45.251Z,2.37
2022-08-03T11:19:57.749Z,2.33
2022-08-03T11:23:02.996Z,2.40
2022-08-03T11:26:16.239Z,2.57
2022-08-03T11:29:30.115Z,2.50
2022-08-03T11:32:54.150Z,2.60
2022-08-03T11:36:03.082Z,2.60
2022-08-03T11:39:17.054Z,2.50
2022-08-03T11:42:50.232Z,2.50
2022-08-03T11:45:59.383Z,2.73
2022-08-03T11:49:10.689Z,2.40
2022-08-03T11:52:15.208Z,2.90
2022-08-03T11:55:22.069Z,2.60
2022-08-03T11:59:16.885Z,2.40
2022-08-03T12:01:52.353Z,2.70
2022-08-03T12:04:58.744Z,2.40
2022-08-03T12:08:06.345Z,2.40
2022-08-03T12:11:13.045Z,2.50
2022-08-03T12:14:50.841Z,2.60
2022-08-03T12:17:43.795Z,2.20
2022-08-03T12:20:49.224Z,2.70
2022-08-03T12:23:59.058Z,2.70
2022-08-03T12:27:02.848Z,2.20
2022-08-03T12:30:09.355Z,2.50
2022-08-03T12:33:22.020Z,2.60
2022-08-03T12:36:26.069Z,2.30
2022-08-03T12:39:31.452Z,2.40
2022-08-03T12:42:37.107Z,2.60
2022-08-03T12:45:42.404Z,2.70
2022-08-03T12:49:03.700Z,2.07
2022-08-03T12:52:08.772Z,2.43
2022-08-03T12:55:20.907Z,1.97
2022-08-03T12:58:35.490Z,2.60
2022-08-03T13:01:49.131Z,2.43
2022-08-03T13:05:00.199Z,2.30
2022-08-03T13:08:04.167Z,2.47
2022-08-03T13:11:21.558Z,2.40
2022-08-03T13:14:25.402Z,2.30
2022-08-03T13:17:30.562Z,2.57
2022-08-03T13:20:34.935Z,2.57
2022-08-03T13:23:38.702Z,2.53
2022-08-03T13:26:42.476Z,2.50
2022-08-03T13:29:46.395Z,2.20
2022-08-03T13:32:51.538Z,2.37
2022-08-03T13:35:55.448Z,2.33
2022-08-03T13:38:59.190Z,2.80
2022-08-03T13:42:03.314Z,2.40
2022-08-03T13:45:09.221Z,2.50
2022-08-03T13:48:14.441Z,2.20
2022-08-03T13:51:38.305Z,2.40
2022-08-03T13:54:46.151Z,2.60
2022-08-03T13:58:04.379Z,2.27
2022-08-03T14:01:10.773Z,2.50
2022-08-03T14:04:21.882Z,2.40
2022-08-03T14:07:26.220Z,2.33
2022-08-03T14:10:30.216Z,2.20
2022-08-03T14:13:34.177Z,2.20
2022-08-03T14:16:38.584Z,2.20
2022-08-03T14:19:53.196Z,2.30
2022-08-03T14:22:57.855Z,2.27
2022-08-03T14:26:01.618Z,2.47
2022-08-03T14:29:05.996Z,2.13
2022-08-03T14:32:13.260Z,2.47
2022-08-03T14:35:18.740Z,2.30
2022-08-03T14:38:22.813Z,2.20
2022-08-03T14:41:26.703Z,2.20
2022-08-03T14:44:30.485Z,2.10
2022-08-03T14:47:34.591Z,2.30
2022-08-03T14:51:00.090Z,2.20
2022-08-03T14:54:03.856Z,2.27
2022-08-03T14:57:08.749Z,2.37
2022-08-03T15:00:13.702Z,2.30
2022-08-03T15:03:20.473Z,2.07
2022-08-03T15:06:26.021Z,2.20
2022-08-03T15:09:29.885Z,2.20
2022-08-03T15:12:33.808Z,2.23
2022-08-03T15:15:37.456Z,2.10
2022-08-03T15:18:41.240Z,2.13
2022-08-03T15:21:47.767Z,2.10
2022-08-03T15:24:51.759Z,2.20
2022-08-03T15:28:03.379Z,2.10
2022-08-03T15:31:08.402Z,2.40
2022-08-03T15:34:12.800Z,2.27
2022-08-03T15:37:18.041Z,2.23
2022-08-03T15:40:21.939Z,2.00
2022-08-03T15:43:26.221Z,1.90
2022-08-03T15:46:30.293Z,2.10
2022-08-03T15:49:34.391Z,2.40
2022-08-03T15:52:39.560Z,2.00
2022-08-03T15:55:43.845Z,2.20
2022-08-03T15:59:10.622Z,2.17
2022-08-03T16:02:11.648Z,2.60
2022-08-03T16:05:15.465Z,1.97
2022-08-03T16:08:20.673Z,2.00
2022-08-03T16:11:24.628Z,1.80
2022-08-03T16:14:32.671Z,2.30
2022-08-03T16:17:40.052Z,2.20
2022-08-03T16:20:44.853Z,2.20
2022-08-03T16:23:50.574Z,2.10
2022-08-03T16:26:55.291Z,2.10
2022-08-03T16:29:59.136Z,2.40
2022-08-03T16:33:03.002Z,2.43
2022-08-03T16:36:07.081Z,2.30
2022-08-03T16:39:12.307Z,2.20
2022-08-03T16:42:16.141Z,1.70
2022-08-03T16:45:19.948Z,2.20
2022-08-03T16:48:23.745Z,2.17
2022-08-03T16:51:27.571Z,1.90
2022-08-03T16:54:50.556Z,1.97
2022-08-03T16:58:00.047Z,2.23
2022-08-03T17:01:10.969Z,2.17
2022-08-03T17:04:27.254Z,1.77
2022-08-03T17:07:33.044Z,1.97
2022-08-03T17:10:38.910Z,2.10
2022-08-03T17:13:44.671Z,2.07
2022-08-03T17:16:52.701Z,2.00
2022-08-03T17:19:59.800Z,2.07
2022-08-03T17:23:35.473Z,1.97
2022-08-03T17:26:43.375Z,2.03
2022-08-03T17:29:50.404Z,2.10
2022-08-03T17:32:57.464Z,1.90
2022-08-03T17:36:01.967Z,1.93
2022-08-03T17:39:07.568Z,1.80
2022-08-03T17:42:29.499Z,2.17
2022-08-03T17:45:52.226Z,2.07
2022-08-03T17:48:59.199Z,2.03
2022-08-03T17:52:04.808Z,2.27
2022-08-03T17:55:54.800Z,2.10
2022-08-03T17:58:54.724Z,2.07
2022-08-03T18:02:30.329Z,1.93
2022-08-03T18:06:11.748Z,2.13
2022-08-03T18:09:05.121Z,2.20
2022-08-03T18:12:28.523Z,1.80
2022-08-03T18:15:39.032Z,1.93
2022-08-03T18:18:44.489Z,2.20
2022-08-03T18:22:03.031Z,2.10
2022-08-03T18:25:09.772Z,1.70
2022-08-03T18:28:18.891Z,2.10
2022-08-03T18:31:33.116Z,1.90
2022-08-03T18:34:53.531Z,2.10
2022-08-03T18:38:01.013Z,1.80
2022-08-03T18:41:07.082Z,1.83
2022-08-03T18:44:46.592Z,1.90
2022-08-03T18:48:05.042Z,1.87
2022-08-03T18:51:24.109Z,1.70
2022-08-03T18:54:57.273Z,2.00
2022-08-03T18:58:18.012Z,1.77
2022-08-03T19:01:59.581Z,1.87
2022-08-03T19:05:03.353Z,2.17
2022-08-03T19:08:16.460Z,1.80
2022-08-03T19:11:27.904Z,1.70
2022-08-03T19:14:41.630Z,1.70
2022-08-03T19:17:53.329Z,2.30
2022-08-03T19:20:59.846Z,1.80
2022-08-03T19:24:09.667Z,1.80
2022-08-03T19:27:15.859Z,1.90
2022-08-03T19:30:38.833Z,1.70
2022-08-03T19:33:56.056Z,1.60
2022-08-03T19:37:04.619Z,2.13
2022-08-03T19:40:12.468Z,1.70
2022-08-03T19:43:21.872Z,1.80
2022-08-03T19:46:30.849Z,1.90
2022-08-03T19:50:04.994Z,1.70
2022-08-03T19:53:11.772Z,1.70
2022-08-03T19:56:17.684Z,1.83
2022-08-03T19:59:23.592Z,1.90
2022-08-03T20:02:30.221Z,1.90
2022-08-03T20:05:44.851Z,1.80
2022-08-03T20:08:58.672Z,1.90
2022-08-03T20:12:02.891Z,1.87
2022-08-03T20:15:07.726Z,1.90
2022-08-03T20:18:16.906Z,1.80
2022-08-03T20:21:26.170Z,1.70
2022-08-03T20:24:36.223Z,2.00
2022-08-03T20:28:06.652Z,2.10
2022-08-03T20:31:08.651Z,1.90
2022-08-03T20:34:12.383Z,1.87
2022-08-03T20:37:21.452Z,2.07
2022-08-03T20:40:27.385Z,1.80
2022-08-03T20:43:31.563Z,1.83
2022-08-03T20:46:50.155Z,1.77
2022-08-03T20:49:59.530Z,1.80
2022-08-03T20:53:06.020Z,1.93
2022-08-03T20:56:11.299Z,1.90
2022-08-03T20:59:20.067Z,1.90
2022-08-03T21:02:29.602Z,1.87
2022-08-03T21:05:51.474Z,1.97
2022-08-03T21:09:03.847Z,2.10
2022-08-03T21:12:18.948Z,2.10
2022-08-03T21:16:02.402Z,1.97
2022-08-03T21:18:53.615Z,1.80
2022-08-03T21:21:58.973Z,1.80
2022-08-03T21:25:05.735Z,1.90
2022-08-03T21:28:11.348Z,2.00
2022-08-03T21:31:22.324Z,1.77
2022-08-03T21:34:31.404Z,2.00
2022-08-03T21:37:35.331Z,1.90
2022-08-03T21:40:39.710Z,1.70
2022-08-03T21:43:44.838Z,1.90
2022-08-03T21:46:51.703Z,1.83
2022-08-03T21:50:06.290Z,2.10
2022-08-03T21:53:13.170Z,2.03
2022-08-03T21:56:21.430Z,2.10
2022-08-03T21:59:26.956Z,2.20
2022-08-03T22:02:32.541Z,2.10
2022-08-03T22:05:43.529Z,2.10
2022-08-03T22:08:48.539Z,1.90
2022-08-03T22:11:54.254Z,2.03
2022-08-03T22:15:02.249Z,2.30
2022-08-03T22:18:07.754Z,1.90
2022-08-03T22:21:13.160Z,1.97
2022-08-03T22:24:19.931Z,2.00
2022-08-03T22:27:32.345Z,2.10
2022-08-03T22:30:38.462Z,2.10
2022-08-03T22:33:45.247Z,2.10
2022-08-03T22:36:49.061Z,1.90
2022-08-03T22:39:54.491Z,2.27
2022-08-03T22:42:58.616Z,1.90
2022-08-03T22:46:10.448Z,1.90
2022-08-03T22:49:17.512Z,2.00
2022-08-03T22:52:22.188Z,2.03
2022-08-03T22:55:26.127Z,2.70
2022-08-03T22:58:29.883Z,2.30
2022-08-03T23:01:39.322Z,2.90
2022-08-03T23:04:45.967Z,2.33
2022-08-03T23:07:51.963Z,2.57
2022-08-03T23:11:02.020Z,2.50
2022-08-03T23:14:10.010Z,2.93
2022-08-03T23:17:15.707Z,2.60
2022-08-03T23:20:20.382Z,2.60
2022-08-03T23:23:43.964Z,2.70
2022-08-03T23:26:49.125Z,2.40
2022-08-03T23:29:54.777Z,2.53
2022-08-03T23:33:02.317Z,2.67
2022-08-03T23:36:27.786Z,2.63
2022-08-03T23:39:31.516Z,2.40
2022-08-03T23:42:39.074Z,2.50
2022-08-03T23:45:46.135Z,2.57
2022-08-03T23:48:51.849Z,2.30
2022-08-03T23:52:07.487Z,2.33
2022-08-03T23:55:21.058Z,2.50
2022-08-03T23:58:39.615Z,2.50
